createdAt,value
2019-04-19T00:00:28.727Z,1026.93
2019-04-19T00:01:11.094Z,1026.91
2019-04-19T00:01:55.717Z,1026.89
2019-04-19T00:02:36.718Z,1026.92
2019-04-19T00:03:17.501Z,1026.89
2019-04-19T00:03:51.206Z,1026.92
2019-04-19T00:04:31.509Z,1026.89
2019-04-19T00:05:13.141Z,1026.94
2019-04-19T00:05:53.992Z,1026.91
2019-04-19T00:06:36.339Z,1026.94
2019-04-19T00:07:18.561Z,1026.93
2019-04-19T00:08:12.333Z,1026.93
2019-04-19T00:08:46.596Z,1026.91
2019-04-19T00:09:28.303Z,1026.9
2019-04-19T00:10:02.225Z,1026.86
2019-04-19T00:10:43.348Z,1026.9
2019-04-19T00:11:26.717Z,1026.89
2019-04-19T00:12:10.639Z,1026.88
2019-04-19T00:12:46.783Z,1026.92
2019-04-19T00:13:19.724Z,1026.88
2019-04-19T00:13:59.850Z,1026.92
2019-04-19T00:14:40.019Z,1026.91
2019-04-19T00:15:20.580Z,1026.92
2019-04-19T00:16:01.157Z,1026.93
2019-04-19T00:16:42.696Z,1026.9
2019-04-19T00:17:25.128Z,1026.92
2019-04-19T00:18:06.000Z,1026.88
2019-04-19T00:18:55.790Z,1026.9
2019-04-19T00:19:44.220Z,1026.91
2019-04-19T00:20:25.375Z,1026.91
2019-04-19T00:21:02.601Z,1026.9
2019-04-19T00:21:44.493Z,1026.89
2019-04-19T00:22:22.847Z,1026.94
2019-04-19T00:23:01.687Z,1026.89
2019-04-19T00:23:34.641Z,1026.94
2019-04-19T00:24:08.012Z,1026.9
2019-04-19T00:24:48.485Z,1026.9
2019-04-19T00:25:30.254Z,1026.93
2019-04-19T00:26:10.626Z,1026.95
2019-04-19T00:26:50.728Z,1026.94
2019-04-19T00:27:38.204Z,1026.91
2019-04-19T00:28:12.912Z,1026.91
2019-04-19T00:28:56.283Z,1026.87
2019-04-19T00:29:41.325Z,1026.9
2019-04-19T00:30:22.829Z,1026.88
2019-04-19T00:31:01.516Z,1026.89
2019-04-19T00:31:45.037Z,1026.92
2019-04-19T00:32:27.688Z,1026.88
2019-04-19T00:33:08.823Z,1026.85
2019-04-19T00:33:41.400Z,1026.87
2019-04-19T00:34:16.767Z,1026.87
2019-04-19T00:34:57.325Z,1026.85
2019-04-19T00:35:38.921Z,1026.82
2019-04-19T00:36:19.724Z,1026.83
2019-04-19T00:36:59.476Z,1026.85
2019-04-19T00:37:40.602Z,1026.86
2019-04-19T00:38:35.639Z,1026.83
2019-04-19T00:39:18.353Z,1026.82
2019-04-19T00:39:56.294Z,1026.86
2019-04-19T00:40:37.999Z,1026.82
2019-04-19T00:41:17.518Z,1026.84
2019-04-19T00:42:04.736Z,1026.83
2019-04-19T00:42:39.821Z,1026.82
2019-04-19T00:43:15.822Z,1026.85
2019-04-19T00:43:57.487Z,1026.86
2019-04-19T00:44:45.236Z,1026.83
2019-04-19T00:45:22.468Z,1026.82
2019-04-19T00:46:04.183Z,1026.81
2019-04-19T00:46:42.616Z,1026.85
2019-04-19T00:47:23.037Z,1026.81
2019-04-19T00:48:01.605Z,1026.86
2019-04-19T00:48:42.184Z,1026.85
2019-04-19T00:49:19.816Z,1026.85
2019-04-19T00:50:00.871Z,1026.85
2019-04-19T00:50:46.827Z,1026.85
2019-04-19T00:51:20.502Z,1026.86
2019-04-19T00:52:05.017Z,1026.93
2019-04-19T00:52:52.923Z,1026.98
2019-04-19T00:53:25.072Z,1026.95
2019-04-19T00:54:04.777Z,1026.9
2019-04-19T00:54:45.933Z,1026.91
2019-04-19T00:55:21.254Z,1026.92
2019-04-19T00:56:04.243Z,1026.9
2019-04-19T00:56:46.534Z,1026.91
2019-04-19T00:57:24.161Z,1026.9
2019-04-19T00:58:03.917Z,1026.91
2019-04-19T00:58:39.477Z,1026.91
2019-04-19T00:59:19.456Z,1026.93
2019-04-19T00:59:59.712Z,1026.93
2019-04-19T01:00:40.302Z,1026.96
2019-04-19T01:01:23.117Z,1026.96
2019-04-19T01:02:07.266Z,1026.96
2019-04-19T01:02:47.134Z,1026.99
2019-04-19T01:03:28.497Z,1026.96
2019-04-19T01:04:05.029Z,1026.97
2019-04-19T01:04:43.206Z,1026.97
2019-04-19T01:05:26.073Z,1026.96
2019-04-19T01:06:08.145Z,1026.94
2019-04-19T01:06:50.722Z,1026.99
2019-04-19T01:07:29.622Z,1026.99
2019-04-19T01:08:10.789Z,1026.98
2019-04-19T01:08:54.130Z,1027
2019-04-19T01:09:38.191Z,1026.99
2019-04-19T01:10:22.510Z,1027
2019-04-19T01:11:05.966Z,1026.98
2019-04-19T01:11:40.055Z,1027.01
2019-04-19T01:12:20.075Z,1027.01
2019-04-19T01:13:03.972Z,1027
2019-04-19T01:13:43.810Z,1027.05
2019-04-19T01:14:20.029Z,1027.05
2019-04-19T01:15:05.461Z,1027.03
2019-04-19T01:15:47.021Z,1027.01
2019-04-19T01:16:21.061Z,1027.07
2019-04-19T01:17:07.324Z,1027.07
2019-04-19T01:17:53.799Z,1027.04
2019-04-19T01:18:25.106Z,1027.03
2019-04-19T01:19:01.351Z,1027.05
2019-04-19T01:19:38.631Z,1027.07
2019-04-19T01:20:17.133Z,1027.06
2019-04-19T01:20:56.396Z,1027.05
2019-04-19T01:21:36.795Z,1027.01
2019-04-19T01:22:21.786Z,1027.07
2019-04-19T01:23:03.735Z,1027.11
2019-04-19T01:23:42.127Z,1027.15
2019-04-19T01:24:25.387Z,1027.11
2019-04-19T01:25:02.364Z,1027.09
2019-04-19T01:25:41.191Z,1027.09
2019-04-19T01:26:21.472Z,1027.12
2019-04-19T01:27:02.491Z,1027.14
2019-04-19T01:27:42.300Z,1027.13
2019-04-19T01:28:25.536Z,1027.12
2019-04-19T01:29:07.590Z,1027.12
2019-04-19T01:29:48.039Z,1027.17
2019-04-19T01:30:31.442Z,1027.12
2019-04-19T01:31:09.805Z,1027.15
2019-04-19T01:31:48.590Z,1027.15
2019-04-19T01:32:26.196Z,1027.14
2019-04-19T01:33:07.050Z,1027.2
2019-04-19T01:33:47.857Z,1027.17
2019-04-19T01:34:29.082Z,1027.2
2019-04-19T01:35:12.134Z,1027.21
2019-04-19T01:35:51.488Z,1027.19
2019-04-19T01:36:33.711Z,1027.22
2019-04-19T01:37:16.092Z,1027.2
2019-04-19T01:37:55.633Z,1027.2
2019-04-19T01:38:38.339Z,1027.21
2019-04-19T01:39:25.109Z,1027.23
2019-04-19T01:40:09.245Z,1027.25
2019-04-19T01:40:53.278Z,1027.24
2019-04-19T01:41:28.190Z,1027.25
2019-04-19T01:42:03.223Z,1027.2
2019-04-19T01:42:48.945Z,1027.23
2019-04-19T01:43:34.238Z,1027.22
2019-04-19T01:44:15.397Z,1027.24
2019-04-19T01:44:53.156Z,1027.24
2019-04-19T01:45:28.645Z,1027.19
2019-04-19T01:46:09.141Z,1027.2
2019-04-19T01:46:52.086Z,1027.2
2019-04-19T01:47:36.089Z,1027.21
2019-04-19T01:48:20.103Z,1027.21
2019-04-19T01:48:53.458Z,1027.25
2019-04-19T01:49:32.109Z,1027.24
2019-04-19T01:50:12.145Z,1027.27
2019-04-19T01:50:57.809Z,1027.24
2019-04-19T01:51:42.074Z,1027.18
2019-04-19T01:52:29.806Z,1027.24
2019-04-19T01:53:03.215Z,1027.25
2019-04-19T01:53:37.299Z,1027.25
2019-04-19T01:54:21.655Z,1027.29
2019-04-19T01:54:57.554Z,1027.25
2019-04-19T01:55:30.743Z,1027.27
2019-04-19T01:56:10.698Z,1027.24
2019-04-19T01:56:51.890Z,1027.27
2019-04-19T01:57:28.203Z,1027.23
2019-04-19T01:58:11.853Z,1027.27
2019-04-19T01:58:52.337Z,1027.3
2019-04-19T01:59:32.815Z,1027.26
2019-04-19T02:00:11.722Z,1027.28
2019-04-19T02:00:53.504Z,1027.29
2019-04-19T02:01:32.988Z,1027.29
2019-04-19T02:02:14.108Z,1027.29
2019-04-19T02:02:56.339Z,1027.27
2019-04-19T02:03:38.471Z,1027.33
2019-04-19T02:04:19.391Z,1027.29
2019-04-19T02:04:59.730Z,1027.3
2019-04-19T02:05:36.029Z,1027.3
2019-04-19T02:06:15.980Z,1027.32
2019-04-19T02:06:56.233Z,1027.32
2019-04-19T02:07:37.100Z,1027.34
2019-04-19T02:08:17.564Z,1027.29
2019-04-19T02:08:59.136Z,1027.32
2019-04-19T02:09:54.068Z,1027.35
2019-04-19T02:10:27.252Z,1027.36
2019-04-19T02:11:07.037Z,1027.32
2019-04-19T02:11:49.068Z,1027.31
2019-04-19T02:12:33.132Z,1027.32
2019-04-19T02:13:08.517Z,1027.33
2019-04-19T02:13:50.682Z,1027.32
2019-04-19T02:14:25.993Z,1027.34
2019-04-19T02:15:07.771Z,1027.34
2019-04-19T02:15:47.159Z,1027.37
2019-04-19T02:16:24.975Z,1027.38
2019-04-19T02:17:08.166Z,1027.39
2019-04-19T02:17:48.122Z,1027.38
2019-04-19T02:18:27.932Z,1027.41
2019-04-19T02:19:08.590Z,1027.36
2019-04-19T02:19:51.886Z,1027.41
2019-04-19T02:20:33.572Z,1027.34
2019-04-19T02:21:07.036Z,1027.34
2019-04-19T02:21:49.308Z,1027.39
2019-04-19T02:22:32.827Z,1027.37
2019-04-19T02:23:11.405Z,1027.37
2019-04-19T02:23:53.933Z,1027.35
2019-04-19T02:24:36.901Z,1027.38
2019-04-19T02:25:15.885Z,1027.36
2019-04-19T02:25:57.453Z,1027.43
2019-04-19T02:26:32.149Z,1027.36
2019-04-19T02:27:15.011Z,1027.41
2019-04-19T02:27:53.038Z,1027.44
2019-04-19T02:28:36.440Z,1027.44
2019-04-19T02:29:19.172Z,1027.41
2019-04-19T02:30:00.458Z,1027.41
2019-04-19T02:30:47.743Z,1027.46
2019-04-19T02:31:35.420Z,1027.43
2019-04-19T02:32:57.666Z,1027.46
2019-04-19T02:33:46.811Z,1027.42
2019-04-19T02:34:28.641Z,1027.44
2019-04-19T02:35:41.755Z,1027.41
2019-04-19T02:36:35.321Z,1027.48
2019-04-19T02:37:07.741Z,1027.45
2019-04-19T02:37:43.434Z,1027.48
2019-04-19T02:38:28.584Z,1027.44
2019-04-19T02:39:10.527Z,1027.47
2019-04-19T02:39:48.910Z,1027.46
2019-04-19T02:40:44.830Z,1027.45
2019-04-19T02:41:57.534Z,1027.46
2019-04-19T02:43:14.033Z,1027.5
2019-04-19T02:44:35.545Z,1027.45
2019-04-19T02:45:11.270Z,1027.49
2019-04-19T02:46:07.613Z,1027.5
2019-04-19T02:46:42.329Z,1027.48
2019-04-19T02:47:17.584Z,1027.49
2019-04-19T02:48:06.118Z,1027.49
2019-04-19T02:49:27.557Z,1027.48
2019-04-19T02:49:55.774Z,1027.47
2019-04-19T02:51:00.483Z,1027.46
2019-04-19T02:51:57.370Z,1027.46
2019-04-19T02:52:38.794Z,1027.48
2019-04-19T02:54:02.100Z,1027.48
2019-04-19T02:54:40.153Z,1027.5
2019-04-19T02:56:10.738Z,1027.46
2019-04-19T02:56:51.621Z,1027.51
2019-04-19T02:57:58.681Z,1027.49
2019-04-19T02:58:39.467Z,1027.52
2019-04-19T02:59:29.247Z,1027.49
2019-04-19T03:00:12.363Z,1027.46
2019-04-19T03:01:26.453Z,1027.44
2019-04-19T03:02:13.742Z,1027.52
2019-04-19T03:04:23.829Z,1027.47
2019-04-19T03:04:59.975Z,1027.47
2019-04-19T03:05:26.997Z,1027.51
2019-04-19T03:06:03.736Z,1027.47
2019-04-19T03:06:33.437Z,1027.47
2019-04-19T03:07:08.885Z,1027.45
2019-04-19T03:07:48.532Z,1027.49
2019-04-19T03:08:27.206Z,1027.48
2019-04-19T03:09:07.565Z,1027.51
2019-04-19T03:09:48.953Z,1027.5
2019-04-19T03:10:29.940Z,1027.48
2019-04-19T03:11:24.438Z,1027.53
2019-04-19T03:12:00.457Z,1027.49
2019-04-19T03:12:48.096Z,1027.51
2019-04-19T03:13:25.377Z,1027.5
2019-04-19T03:14:02.876Z,1027.47
2019-04-19T03:14:45.043Z,1027.53
2019-04-19T03:15:36.193Z,1027.5
2019-04-19T03:16:09.594Z,1027.48
2019-04-19T03:16:50.674Z,1027.53
2019-04-19T03:17:30.578Z,1027.53
2019-04-19T03:18:19.101Z,1027.54
2019-04-19T03:18:44.924Z,1027.5
2019-04-19T03:19:24.595Z,1027.52
2019-04-19T03:20:10.683Z,1027.55
2019-04-19T03:20:46.538Z,1027.55
2019-04-19T03:21:30.633Z,1027.54
2019-04-19T03:22:15.969Z,1027.5
2019-04-19T03:22:53.062Z,1027.55
2019-04-19T03:23:32.819Z,1027.55
2019-04-19T03:24:14.013Z,1027.56
2019-04-19T03:24:59.293Z,1027.57
2019-04-19T03:25:31.177Z,1027.57
2019-04-19T03:26:19.466Z,1027.59
2019-04-19T03:26:53.004Z,1027.59
2019-04-19T03:27:32.771Z,1027.58
2019-04-19T03:28:15.007Z,1027.6
2019-04-19T03:28:49.937Z,1027.6
2019-04-19T03:29:31.814Z,1027.61
2019-04-19T03:30:14.063Z,1027.59
2019-04-19T03:31:13.727Z,1027.57
2019-04-19T03:32:44.485Z,1027.63
2019-04-19T03:34:40.441Z,1027.57
2019-04-19T03:35:00.588Z,1027.66
2019-04-19T03:35:53.741Z,1027.65
2019-04-19T03:36:24.442Z,1027.62
2019-04-19T03:37:04.016Z,1027.6
2019-04-19T03:37:49.719Z,1027.62
2019-04-19T03:38:29.325Z,1027.6
2019-04-19T03:39:17.583Z,1027.59
2019-04-19T03:39:51.191Z,1027.62
2019-04-19T03:40:43.736Z,1027.62
2019-04-19T03:41:18.298Z,1027.63
2019-04-19T03:42:54.020Z,1027.62
2019-04-19T03:43:18.082Z,1027.65
2019-04-19T03:44:08.688Z,1027.68
2019-04-19T03:44:30.454Z,1027.65
2019-04-19T03:45:12.644Z,1027.63
2019-04-19T03:46:01.570Z,1027.66
2019-04-19T03:46:45.684Z,1027.66
2019-04-19T03:47:27.665Z,1027.68
2019-04-19T03:48:04.206Z,1027.69
2019-04-19T03:48:38.864Z,1027.65
2019-04-19T03:49:30.150Z,1027.65
2019-04-19T03:50:02.879Z,1027.68
2019-04-19T03:50:36.906Z,1027.64
2019-04-19T03:51:17.789Z,1027.67
2019-04-19T03:52:14.442Z,1027.65
2019-04-19T03:52:42.344Z,1027.66
2019-04-19T03:53:30.705Z,1027.65
2019-04-19T03:53:59.988Z,1027.66
2019-04-19T03:54:38.606Z,1027.65
2019-04-19T03:55:23.752Z,1027.64
2019-04-19T03:56:09.166Z,1027.67
2019-04-19T03:56:43.472Z,1027.66
2019-04-19T03:57:18.244Z,1027.69
2019-04-19T03:57:57.835Z,1027.68
2019-04-19T03:58:30.348Z,1027.68
2019-04-19T03:59:09.699Z,1027.68
2019-04-19T03:59:50.263Z,1027.7
2019-04-19T04:00:32.128Z,1027.72
2019-04-19T04:01:11.403Z,1027.71
2019-04-19T04:01:55.042Z,1027.71
2019-04-19T04:02:36.718Z,1027.68
2019-04-19T04:03:22.224Z,1027.76
2019-04-19T04:04:00.352Z,1027.77
2019-04-19T04:04:35.563Z,1027.72
2019-04-19T04:05:17.208Z,1027.7
2019-04-19T04:05:56.511Z,1027.71
2019-04-19T04:06:37.778Z,1027.74
2019-04-19T04:07:20.743Z,1027.75
2019-04-19T04:08:04.267Z,1027.75
2019-04-19T04:08:43.801Z,1027.76
2019-04-19T04:09:18.321Z,1027.75
2019-04-19T04:10:00.687Z,1027.76
2019-04-19T04:10:42.698Z,1027.78
2019-04-19T04:11:23.336Z,1027.81
2019-04-19T04:12:15.182Z,1027.82
2019-04-19T04:12:49.209Z,1027.85
2019-04-19T04:13:32.457Z,1027.82
2019-04-19T04:14:14.826Z,1027.85
2019-04-19T04:14:56.479Z,1027.84
2019-04-19T04:15:38.954Z,1027.82
2019-04-19T04:16:17.099Z,1027.84
2019-04-19T04:16:48.934Z,1027.87
2019-04-19T04:17:25.220Z,1027.92
2019-04-19T04:18:06.824Z,1027.86
2019-04-19T04:18:47.090Z,1027.86
2019-04-19T04:19:27.212Z,1027.85
2019-04-19T04:20:07.560Z,1027.88
2019-04-19T04:20:52.566Z,1027.88
2019-04-19T04:21:34.412Z,1027.9
2019-04-19T04:22:14.880Z,1027.92
2019-04-19T04:22:51.164Z,1027.95
2019-04-19T04:23:36.539Z,1027.95
2019-04-19T04:24:20.614Z,1027.94
2019-04-19T04:24:58.120Z,1027.98
2019-04-19T04:25:42.990Z,1027.98
2019-04-19T04:26:16.152Z,1027.96
2019-04-19T04:27:03.693Z,1027.99
2019-04-19T04:27:46.260Z,1027.98
2019-04-19T04:28:29.873Z,1028
2019-04-19T04:29:04.892Z,1028
2019-04-19T04:29:41.695Z,1028
2019-04-19T04:30:25.602Z,1027.97
2019-04-19T04:31:08.587Z,1028
2019-04-19T04:31:47.746Z,1028.03
2019-04-19T04:32:34.004Z,1028.06
2019-04-19T04:33:07.051Z,1028.01
2019-04-19T04:33:49.035Z,1028.01
2019-04-19T04:34:31.713Z,1028.06
2019-04-19T04:35:19.266Z,1028.05
2019-04-19T04:35:56.927Z,1028.06
2019-04-19T04:36:40.676Z,1028.01
2019-04-19T04:37:20.254Z,1028.07
2019-04-19T04:37:54.267Z,1028.04
2019-04-19T04:38:28.990Z,1028.04
2019-04-19T04:39:04.833Z,1028.08
2019-04-19T04:39:45.118Z,1028.07
2019-04-19T04:40:25.414Z,1028.1
2019-04-19T04:41:11.243Z,1028.09
2019-04-19T04:41:47.447Z,1028.15
2019-04-19T04:42:33.529Z,1028.12
2019-04-19T04:43:18.780Z,1028.11
2019-04-19T04:44:07.767Z,1028.1
2019-04-19T04:44:47.556Z,1028.12
2019-04-19T04:45:27.557Z,1028.09
2019-04-19T04:46:14.990Z,1028.14
2019-04-19T04:46:52.013Z,1028.12
2019-04-19T04:47:28.263Z,1028.11
2019-04-19T04:48:03.461Z,1028.12
2019-04-19T04:48:48.180Z,1028.15
2019-04-19T04:49:41.200Z,1028.1
2019-04-19T04:50:16.772Z,1028.14
2019-04-19T04:50:55.926Z,1028.17
2019-04-19T04:51:29.635Z,1028.15
2019-04-19T04:52:06.388Z,1028.14
2019-04-19T04:52:39.013Z,1028.13
2019-04-19T04:53:17.100Z,1028.19
2019-04-19T04:53:57.375Z,1028.15
2019-04-19T04:54:37.568Z,1028.16
2019-04-19T04:55:17.998Z,1028.17
2019-04-19T04:56:02.709Z,1028.16
2019-04-19T04:56:50.735Z,1028.15
2019-04-19T04:57:28.041Z,1028.18
2019-04-19T04:58:02.687Z,1028.2
2019-04-19T04:58:43.852Z,1028.17
2019-04-19T04:59:23.914Z,1028.15
2019-04-19T05:00:03.197Z,1028.18
2019-04-19T05:00:50.609Z,1028.17
2019-04-19T05:01:33.114Z,1028.17
2019-04-19T05:02:09.911Z,1028.21
2019-04-19T05:02:59.964Z,1028.21
2019-04-19T05:03:42.798Z,1028.19
2019-04-19T05:04:18.358Z,1028.23
2019-04-19T05:05:05.498Z,1028.18
2019-04-19T05:05:43.005Z,1028.21
2019-04-19T05:06:21.495Z,1028.2
2019-04-19T05:07:03.183Z,1028.28
2019-04-19T05:07:47.370Z,1028.22
2019-04-19T05:08:24.031Z,1028.23
2019-04-19T05:09:03.429Z,1028.25
2019-04-19T05:09:48.587Z,1028.27
2019-04-19T05:10:24.588Z,1028.25
2019-04-19T05:11:11.638Z,1028.25
2019-04-19T05:11:51.851Z,1028.27
2019-04-19T05:12:36.246Z,1028.26
2019-04-19T05:13:18.932Z,1028.27
2019-04-19T05:13:55.738Z,1028.25
2019-04-19T05:14:31.245Z,1028.27
2019-04-19T05:15:10.714Z,1028.27
2019-04-19T05:15:52.725Z,1028.36
2019-04-19T05:16:44.168Z,1028.29
2019-04-19T05:17:26.071Z,1028.29
2019-04-19T05:17:56.632Z,1028.28
2019-04-19T05:18:34.333Z,1028.3
2019-04-19T05:19:12.653Z,1028.27
2019-04-19T05:19:56.163Z,1028.31
2019-04-19T05:20:35.468Z,1028.33
2019-04-19T05:21:17.752Z,1028.27
2019-04-19T05:21:53.912Z,1028.29
2019-04-19T05:22:32.448Z,1028.32
2019-04-19T05:23:17.309Z,1028.31
2019-04-19T05:24:04.803Z,1028.3
2019-04-19T05:24:51.063Z,1028.3
2019-04-19T05:25:30.625Z,1028.3
2019-04-19T05:26:00.948Z,1028.33
2019-04-19T05:27:03.589Z,1028.32
2019-04-19T05:27:26.304Z,1028.32
2019-04-19T05:28:00.516Z,1028.34
2019-04-19T05:28:40.598Z,1028.36
2019-04-19T05:29:19.504Z,1028.39
2019-04-19T05:29:50.939Z,1028.32
2019-04-19T05:30:40.106Z,1028.37
2019-04-19T05:31:12.836Z,1028.38
2019-04-19T05:31:53.207Z,1028.4
2019-04-19T05:32:33.005Z,1028.39
2019-04-19T05:33:19.512Z,1028.44
2019-04-19T05:34:10.936Z,1028.37
2019-04-19T05:34:45.027Z,1028.39
2019-04-19T05:35:22.256Z,1028.39
2019-04-19T05:36:13.482Z,1028.4
2019-04-19T05:36:49.585Z,1028.38
2019-04-19T05:37:26.777Z,1028.37
2019-04-19T05:38:07.038Z,1028.37
2019-04-19T05:38:57.180Z,1028.37
2019-04-19T05:39:36.861Z,1028.36
2019-04-19T05:40:15.037Z,1028.41
2019-04-19T05:40:49.841Z,1028.38
2019-04-19T05:41:29.566Z,1028.41
2019-04-19T05:42:10.415Z,1028.43
2019-04-19T05:42:52.284Z,1028.4
2019-04-19T05:43:56.734Z,1028.38
2019-04-19T05:45:13.945Z,1028.38
2019-04-19T05:45:42.569Z,1028.39
2019-04-19T05:46:20.839Z,1028.37
2019-04-19T05:46:58.156Z,1028.39
2019-04-19T05:47:33.121Z,1028.4
2019-04-19T05:48:16.527Z,1028.41
2019-04-19T05:48:50.594Z,1028.42
2019-04-19T05:49:41.349Z,1028.4
2019-04-19T05:50:25.358Z,1028.4
2019-04-19T05:51:13.798Z,1028.37
2019-04-19T05:51:47.114Z,1028.4
2019-04-19T05:52:22.472Z,1028.38
2019-04-19T05:52:58.348Z,1028.35
2019-04-19T05:53:34.727Z,1028.38
2019-04-19T05:54:10.521Z,1028.4
2019-04-19T05:54:49.323Z,1028.36
2019-04-19T05:55:30.190Z,1028.41
2019-04-19T05:56:09.685Z,1028.37
2019-04-19T05:56:54.751Z,1028.39
2019-04-19T05:57:45.329Z,1028.42
2019-04-19T05:58:21.030Z,1028.41
2019-04-19T05:58:59.812Z,1028.4
2019-04-19T05:59:44.334Z,1028.4
2019-04-19T06:00:25.537Z,1028.44
2019-04-19T06:01:05.520Z,1028.45
2019-04-19T06:01:49.665Z,1028.43
2019-04-19T06:02:24.277Z,1028.44
2019-04-19T06:03:05.008Z,1028.46
2019-04-19T06:03:50.062Z,1028.46
2019-04-19T06:04:31.035Z,1028.43
2019-04-19T06:05:33.666Z,1028.44
2019-04-19T06:06:06.861Z,1028.44
2019-04-19T06:06:41.914Z,1028.46
2019-04-19T06:07:16.856Z,1028.5
2019-04-19T06:07:53.711Z,1028.44
2019-04-19T06:08:26.402Z,1028.44
2019-04-19T06:09:00.852Z,1028.44
2019-04-19T06:09:41.421Z,1028.45
2019-04-19T06:10:25.355Z,1028.45
2019-04-19T06:11:04.799Z,1028.44
2019-04-19T06:11:44.654Z,1028.45
2019-04-19T06:12:28.536Z,1028.42
2019-04-19T06:13:09.454Z,1028.43
2019-04-19T06:13:52.332Z,1028.4
2019-04-19T06:14:50.406Z,1028.44
2019-04-19T06:15:29.726Z,1028.5
2019-04-19T06:16:11.030Z,1028.47
2019-04-19T06:16:46.388Z,1028.46
2019-04-19T06:17:30.310Z,1028.5
2019-04-19T06:18:09.321Z,1028.45
2019-04-19T06:18:45.923Z,1028.48
2019-04-19T06:19:30.931Z,1028.48
2019-04-19T06:20:10.941Z,1028.48
2019-04-19T06:20:52.889Z,1028.49
2019-04-19T06:21:32.514Z,1028.46
2019-04-19T06:22:09.913Z,1028.47
2019-04-19T06:22:57.628Z,1028.51
2019-04-19T06:23:43.750Z,1028.55
2019-04-19T06:24:21.477Z,1028.63
2019-04-19T06:24:55.438Z,1028.64
2019-04-19T06:25:45.597Z,1028.63
2019-04-19T06:27:12.508Z,1028.63
2019-04-19T06:28:02.300Z,1028.63
2019-04-19T06:28:43.477Z,1028.68
2019-04-19T06:29:06.118Z,1028.65
2019-04-19T06:29:49.070Z,1028.7
2019-04-19T06:30:25.909Z,1028.69
2019-04-19T06:31:12.410Z,1028.72
2019-04-19T06:31:49.918Z,1028.75
2019-04-19T06:32:33.547Z,1028.68
2019-04-19T06:33:10.618Z,1028.74
2019-04-19T06:33:45.513Z,1028.74
2019-04-19T06:34:30.501Z,1028.75
2019-04-19T06:35:05.215Z,1028.76
2019-04-19T06:35:40.327Z,1028.8
2019-04-19T06:36:14.467Z,1028.8
2019-04-19T06:37:01.290Z,1028.82
2019-04-19T06:37:37.181Z,1028.87
2019-04-19T06:38:16.273Z,1028.87
2019-04-19T06:38:55.678Z,1028.83
2019-04-19T06:39:37.307Z,1028.88
2019-04-19T06:40:23.089Z,1028.82
2019-04-19T06:41:04.058Z,1028.84
2019-04-19T06:41:46.964Z,1028.84
2019-04-19T06:42:31.764Z,1028.9
2019-04-19T06:43:06.526Z,1028.86
2019-04-19T06:43:51.607Z,1028.89
2019-04-19T06:44:42.298Z,1028.89
2019-04-19T06:45:17.363Z,1028.94
2019-04-19T06:45:57.872Z,1028.91
2019-04-19T06:46:34.838Z,1028.93
2019-04-19T06:47:13.143Z,1028.92
2019-04-19T06:47:51.563Z,1028.95
2019-04-19T06:48:29.873Z,1028.9
2019-04-19T06:49:13.174Z,1028.94
2019-04-19T06:49:48.735Z,1028.95
2019-04-19T06:50:34.099Z,1028.92
2019-04-19T06:51:17.266Z,1028.96
2019-04-19T06:51:57.384Z,1028.98
2019-04-19T06:52:33.312Z,1028.96
2019-04-19T06:53:12.255Z,1028.97
2019-04-19T06:53:58.662Z,1028.98
2019-04-19T06:54:37.259Z,1029.04
2019-04-19T06:55:20.802Z,1029.04
2019-04-19T06:56:05.732Z,1028.98
2019-04-19T06:56:40.014Z,1029.02
2019-04-19T06:57:25.512Z,1029.05
2019-04-19T06:58:05.298Z,1029.03
2019-04-19T06:58:47.029Z,1029
2019-04-19T06:59:32.218Z,1029.06
2019-04-19T07:00:12.786Z,1029.06
2019-04-19T07:00:54.300Z,1029.06
2019-04-19T07:01:30.057Z,1029.06
2019-04-19T07:02:02.687Z,1029.1
2019-04-19T07:02:43.453Z,1029.07
2019-04-19T07:03:23.638Z,1029.08
2019-04-19T07:04:04.196Z,1029.11
2019-04-19T07:04:54.119Z,1029.12
2019-04-19T07:05:36.875Z,1029.12
2019-04-19T07:06:23.514Z,1029.12
2019-04-19T07:07:09.192Z,1029.1
2019-04-19T07:07:46.842Z,1029.1
2019-04-19T07:08:48.629Z,1029.08
2019-04-19T07:09:12.173Z,1029.09
2019-04-19T07:09:50.035Z,1029.09
2019-04-19T07:10:36.695Z,1029.12
2019-04-19T07:11:11.039Z,1029.13
2019-04-19T07:11:54.979Z,1029.1
2019-04-19T07:12:33.830Z,1029.11
2019-04-19T07:13:09.431Z,1029.13
2019-04-19T07:13:44.716Z,1029.13
2019-04-19T07:14:21.216Z,1029.15
2019-04-19T07:15:25.756Z,1029.15
2019-04-19T07:16:01.589Z,1029.15
2019-04-19T07:16:39.015Z,1029.16
2019-04-19T07:17:15.009Z,1029.14
2019-04-19T07:17:53.299Z,1029.16
2019-04-19T07:18:33.448Z,1029.2
2019-04-19T07:19:17.069Z,1029.17
2019-04-19T07:19:57.289Z,1029.19
2019-04-19T07:20:33.573Z,1029.17
2019-04-19T07:21:21.134Z,1029.19
2019-04-19T07:21:58.907Z,1029.19
2019-04-19T07:22:41.123Z,1029.21
2019-04-19T07:23:28.028Z,1029.19
2019-04-19T07:24:16.025Z,1029.18
2019-04-19T07:24:49.386Z,1029.22
2019-04-19T07:25:36.114Z,1029.2
2019-04-19T07:26:14.824Z,1029.2
2019-04-19T07:26:52.063Z,1029.2
2019-04-19T07:27:30.621Z,1029.26
2019-04-19T07:28:08.303Z,1029.22
2019-04-19T07:28:41.850Z,1029.25
2019-04-19T07:29:23.067Z,1029.23
2019-04-19T07:30:05.275Z,1029.28
2019-04-19T07:30:49.015Z,1029.27
2019-04-19T07:31:27.970Z,1029.27
2019-04-19T07:32:08.343Z,1029.26
2019-04-19T07:32:53.894Z,1029.26
2019-04-19T07:33:42.748Z,1029.29
2019-04-19T07:34:30.028Z,1029.29
2019-04-19T07:35:05.635Z,1029.31
2019-04-19T07:35:54.024Z,1029.34
2019-04-19T07:36:34.710Z,1029.29
2019-04-19T07:37:12.888Z,1029.31
2019-04-19T07:37:56.259Z,1029.31
2019-04-19T07:38:38.784Z,1029.32
2019-04-19T07:39:20.219Z,1029.3
2019-04-19T07:40:05.575Z,1029.32
2019-04-19T07:41:00.006Z,1029.32
2019-04-19T07:41:26.561Z,1029.33
2019-04-19T07:42:10.576Z,1029.35
2019-04-19T07:42:43.533Z,1029.35
2019-04-19T07:43:28.287Z,1029.37
2019-04-19T07:44:05.910Z,1029.34
2019-04-19T07:44:44.027Z,1029.35
2019-04-19T07:45:22.843Z,1029.41
2019-04-19T07:46:13.762Z,1029.38
2019-04-19T07:46:55.467Z,1029.39
2019-04-19T07:47:29.326Z,1029.43
2019-04-19T07:48:07.934Z,1029.42
2019-04-19T07:48:42.866Z,1029.41
2019-04-19T07:49:25.030Z,1029.4
2019-04-19T07:50:10.988Z,1029.38
2019-04-19T07:50:55.487Z,1029.37
2019-04-19T07:51:32.246Z,1029.37
2019-04-19T07:52:16.067Z,1029.36
2019-04-19T07:52:55.312Z,1029.34
2019-04-19T07:53:38.616Z,1029.33
2019-04-19T07:54:15.522Z,1029.38
2019-04-19T07:55:00.206Z,1029.41
2019-04-19T07:55:41.311Z,1029.33
2019-04-19T07:57:35.595Z,1029.37
2019-04-19T08:00:36.321Z,1029.4
2019-04-19T08:01:41.073Z,1029.38
2019-04-19T08:03:57.186Z,1029.44
2019-04-19T08:05:14.964Z,1029.45
2019-04-19T08:05:54.153Z,1029.42
2019-04-19T08:07:15.279Z,1029.4
2019-04-19T08:08:46.374Z,1029.38
2019-04-19T08:09:58.394Z,1029.38
2019-04-19T08:10:40.367Z,1029.35
2019-04-19T08:11:25.556Z,1029.36
2019-04-19T08:12:02.990Z,1029.35
2019-04-19T08:12:36.600Z,1029.39
2019-04-19T08:13:31.060Z,1029.36
2019-04-19T08:14:00.819Z,1029.38
2019-04-19T08:14:47.668Z,1029.36
2019-04-19T08:16:04.239Z,1029.41
2019-04-19T08:18:12.441Z,1029.33
2019-04-19T08:27:26.586Z,1029.33
2019-04-19T08:28:12.846Z,1029.3
2019-04-19T08:28:53.761Z,1029.29
2019-04-19T08:29:34.923Z,1029.27
2019-04-19T08:30:11.060Z,1029.27
2019-04-19T08:30:50.863Z,1029.23
2019-04-19T08:31:27.615Z,1029.22
2019-04-19T08:32:09.491Z,1029.24
2019-04-19T08:32:51.310Z,1029.23
2019-04-19T08:33:32.222Z,1029.24
2019-04-19T08:34:16.932Z,1029.19
2019-04-19T08:35:01.748Z,1029.21
2019-04-19T08:35:41.069Z,1029.23
2019-04-19T08:36:25.237Z,1029.19
2019-04-19T08:37:01.781Z,1029.2
2019-04-19T08:37:42.171Z,1029.18
2019-04-19T08:38:24.341Z,1029.26
2019-04-19T08:39:16.608Z,1029.23
2019-04-19T08:39:53.717Z,1029.19
2019-04-19T08:40:42.221Z,1029.18
2019-04-19T08:41:13.460Z,1029.17
2019-04-19T08:42:09.227Z,1029.16
2019-04-19T08:42:38.391Z,1029.19
2019-04-19T08:43:24.884Z,1029.18
2019-04-19T08:44:10.032Z,1029.21
2019-04-19T08:44:42.773Z,1029.14
2019-04-19T08:45:19.662Z,1029.17
2019-04-19T08:45:55.469Z,1029.18